Aeroporto :







RITROVATECI SU...

 
LOGIN :

Iscrizione | Disclaimer

   EN    FR    IT 

 









Sommario :    VFR   VFR Marginale   IFR   IFR Intensivo   IFR Molto Intensivo
Visibilità : 
Base nubi : 
>= 8 km
>= 3000ft
5 / 8 km
1000 / 3000 ft
1500m / 5 km
500 / 1000 ft
800 / 1500m
200 / 500 ft
< 800m
< 200 ft
Simboli :   Temporali  Nebbia  Neve Forte  Precipitazioni Forti  Vento > 20 kt






- Altitudine del aeroporto : 454 ft


KIZG - Eastern Slopes Regional

ULTIMO METAR :
  • 272054Z AUTO 30008KT 10SM FEW050 OVC075 04/M04 A2950 RMK AO2 SLP995 T00441039 53008

METARs OBSOLETI :
  • 271954Z AUTO VRB06KT 10SM BKN055 OVC070 04/M04 A2949 RMK AO2 SLP990 T00441039
  • 271854Z AUTO 28007KT 10SM OVC046 05/M04 A2948 RMK AO2 SLP986 T00501039

TAF N/A



MetMap, La meteo Aeronautica in un colpo d'occhio ! - Copyright ORBIFLY Dicembre 2007 - Disclaimer

ORBIFLY MET'MAP TEAM :

Programmazione e sviluppo : Alexandra Zaïnal
Concezione : Baudouin d'Aumeries
Aiuto per la programmazione : Marc-Olivier Méhu
Supporto tecnico e logistico : Manuel Goepfert
Aiuto per la traduzione : Arnaldo La Scala

Contatto : metmap@orbifly.com




FONTI E CREDITI :

   NOAA